sensor_id;sensor_type;location;lat;lon;timestamp;temperature;humidity
21672;DHT22;10997;52.242;8.168;2024-01-10T00:02:22;-6.20;99.90
21672;DHT22;10997;52.242;8.168;2024-01-10T00:07:23;-6.30;99.90
21672;DHT22;10997;52.242;8.168;2024-01-10T00:12:24;-6.20;99.90
21672;DHT22;10997;52.242;8.168;2024-01-10T00:17:24;-6.30;99.90
21672;DHT22;10997;52.242;8.168;2024-01-10T00:22:25;-6.30;99.90
21672;DHT22;10997;52.242;8.168;2024-01-10T00:27:25;-6.30;99.90
21672;DHT22;10997;52.242;8.168;2024-01-10T00:32:26;-6.40;99.90
21672;DHT22;10997;52.242;8.168;2024-01-10T00:37:27;-6.40;99.90
21672;DHT22;10997;52.242;8.168;2024-01-10T00:42:27;-6.50;99.90
21672;DHT22;10997;52.242;8.168;2024-01-10T00:47:28;-6.40;99.90
21672;DHT22;10997;52.242;8.168;2024-01-10T00:52:29;-6.40;99.90
21672;DHT22;10997;52.242;8.168;2024-01-10T00:57:29;-6.40;99.90
21672;DHT22;10997;52.242;8.168;2024-01-10T01:02:30;-6.40;99.90
21672;DHT22;10997;52.242;8.168;2024-01-10T01:07:30;-6.40;99.90
21672;DHT22;10997;52.242;8.168;2024-01-10T01:12:31;-6.50;99.90
21672;DHT22;10997;52.242;8.168;2024-01-10T01:17:32;-6.50;99.90
21672;DHT22;10997;52.242;8.168;2024-01-10T01:22:32;-6.50;99.90
21672;DHT22;10997;52.242;8.168;2024-01-10T01:27:33;-6.50;99.90
21672;DHT22;10997;52.242;8.168;2024-01-10T01:32:33;-6.50;99.90
21672;DHT22;10997;52.242;8.168;2024-01-10T01:37:34;-6.70;99.90
21672;DHT22;10997;52.242;8.168;2024-01-10T01:42:35;-6.70;99.90
21672;DHT22;10997;52.242;8.168;2024-01-10T01:47:35;-6.80;99.90
21672;DHT22;10997;52.242;8.168;2024-01-10T01:52:36;-6.80;99.90
21672;DHT22;10997;52.242;8.168;2024-01-10T01:57:38;-6.90;99.90
21672;DHT22;10997;52.242;8.168;2024-01-10T02:02:40;-6.90;99.90
21672;DHT22;10997;52.242;8.168;2024-01-10T02:07:40;-7.00;99.90
21672;DHT22;10997;52.242;8.168;2024-01-10T02:12:41;-7.10;99.90
21672;DHT22;10997;52.242;8.168;2024-01-10T02:17:42;-7.10;99.90
21672;DHT22;10997;52.242;8.168;2024-01-10T02:22:43;-7.20;99.90
21672;DHT22;10997;52.242;8.168;2024-01-10T02:27:44;-7.20;99.90
21672;DHT22;10997;52.242;8.168;2024-01-10T02:32:44;-7.20;99.90
21672;DHT22;10997;52.242;8.168;2024-01-10T02:37:45;-7.30;99.90
21672;DHT22;10997;52.242;8.168;2024-01-10T02:42:46;-7.30;99.90
21672;DHT22;10997;52.242;8.168;2024-01-10T02:47:47;-7.30;99.90
21672;DHT22;10997;52.242;8.168;2024-01-10T02:52:48;-7.30;99.90
21672;DHT22;10997;52.242;8.168;2024-01-10T02:57:49;-7.40;99.90
21672;DHT22;10997;52.242;8.168;2024-01-10T03:02:50;-7.40;99.90
21672;DHT22;10997;52.242;8.168;2024-01-10T03:07:50;-7.50;99.90
21672;DHT22;10997;52.242;8.168;2024-01-10T03:12:51;-7.50;99.90
21672;DHT22;10997;52.242;8.168;2024-01-10T03:17:51;-7.50;99.90
21672;DHT22;10997;52.242;8.168;2024-01-10T03:22:52;-7.40;99.90
21672;DHT22;10997;52.242;8.168;2024-01-10T03:27:52;-7.40;99.90
21672;DHT22;10997;52.242;8.168;2024-01-10T03:32:53;-7.50;99.90
21672;DHT22;10997;52.242;8.168;2024-01-10T03:37:54;-7.50;99.90
21672;DHT22;10997;52.242;8.168;2024-01-10T03:42:55;-7.40;99.90
21672;DHT22;10997;52.242;8.168;2024-01-10T03:47:56;-7.40;99.90
21672;DHT22;10997;52.242;8.168;2024-01-10T03:52:56;-7.50;99.90
21672;DHT22;10997;52.242;8.168;2024-01-10T03:57:57;-7.50;99.90
21672;DHT22;10997;52.242;8.168;2024-01-10T04:02:57;-7.50;99.90
21672;DHT22;10997;52.242;8.168;2024-01-10T04:07:58;-7.40;99.90
21672;DHT22;10997;52.242;8.168;2024-01-10T04:12:59;-7.40;99.90
21672;DHT22;10997;52.242;8.168;2024-01-10T04:17:59;-7.40;99.90
21672;DHT22;10997;52.242;8.168;2024-01-10T04:23:00;-7.40;99.90
21672;DHT22;10997;52.242;8.168;2024-01-10T04:28:00;-7.50;99.90
21672;DHT22;10997;52.242;8.168;2024-01-10T04:33:02;-7.50;99.90
21672;DHT22;10997;52.242;8.168;2024-01-10T04:38:02;-7.50;99.90
21672;DHT22;10997;52.242;8.168;2024-01-10T04:43:03;-7.50;99.90
21672;DHT22;10997;52.242;8.168;2024-01-10T04:48:04;-7.40;99.90
21672;DHT22;10997;52.242;8.168;2024-01-10T04:53:05;-7.40;99.90
21672;DHT22;10997;52.242;8.168;2024-01-10T04:58:05;-7.40;99.90
21672;DHT22;10997;52.242;8.168;2024-01-10T05:03:06;-7.50;99.90
21672;DHT22;10997;52.242;8.168;2024-01-10T05:08:07;-7.50;99.90
21672;DHT22;10997;52.242;8.168;2024-01-10T05:13:07;-7.40;99.90
21672;DHT22;10997;52.242;8.168;2024-01-10T05:18:08;-7.40;99.90
21672;DHT22;10997;52.242;8.168;2024-01-10T05:23:09;-7.40;99.90
21672;DHT22;10997;52.242;8.168;2024-01-10T05:28:09;-7.40;99.90
21672;DHT22;10997;52.242;8.168;2024-01-10T05:33:10;-7.40;99.90
21672;DHT22;10997;52.242;8.168;2024-01-10T05:38:11;-7.40;99.90
21672;DHT22;10997;52.242;8.168;2024-01-10T05:43:12;-7.40;99.90
21672;DHT22;10997;52.242;8.168;2024-01-10T05:48:13;-7.50;99.90
21672;DHT22;10997;52.242;8.168;2024-01-10T05:53:13;-7.50;99.90
21672;DHT22;10997;52.242;8.168;2024-01-10T05:58:17;-7.50;99.90
21672;DHT22;10997;52.242;8.168;2024-01-10T06:03:18;-7.60;99.90
21672;DHT22;10997;52.242;8.168;2024-01-10T06:08:18;-7.60;99.90
21672;DHT22;10997;52.242;8.168;2024-01-10T06:13:19;-7.60;99.90
21672;DHT22;10997;52.242;8.168;2024-01-10T06:18:19;-7.60;99.90
21672;DHT22;10997;52.242;8.168;2024-01-10T06:23:20;-7.50;99.90
21672;DHT22;10997;52.242;8.168;2024-01-10T06:28:21;-7.50;99.90
21672;DHT22;10997;52.242;8.168;2024-01-10T06:33:21;-7.50;99.90
21672;DHT22;10997;52.242;8.168;2024-01-10T06:38:22;-7.40;99.90
21672;DHT22;10997;52.242;8.168;2024-01-10T06:43:24;-7.40;99.90
21672;DHT22;10997;52.242;8.168;2024-01-10T06:48:24;-7.40;99.90
21672;DHT22;10997;52.242;8.168;2024-01-10T06:53:25;-7.50;99.90
21672;DHT22;10997;52.242;8.168;2024-01-10T06:58:28;-7.50;99.90
21672;DHT22;10997;52.242;8.168;2024-01-10T07:03:29;-7.50;99.90
21672;DHT22;10997;52.242;8.168;2024-01-10T07:08:29;-7.50;99.90
21672;DHT22;10997;52.242;8.168;2024-01-10T07:13:31;-7.60;99.90
21672;DHT22;10997;52.242;8.168;2024-01-10T07:18:32;-7.60;99.90
21672;DHT22;10997;52.242;8.168;2024-01-10T07:23:32;-7.70;99.90
21672;DHT22;10997;52.242;8.168;2024-01-10T07:28:34;-7.70;99.90
21672;DHT22;10997;52.242;8.168;2024-01-10T07:33:35;-7.70;99.90
21672;DHT22;10997;52.242;8.168;2024-01-10T07:38:35;-7.80;99.90
21672;DHT22;10997;52.242;8.168;2024-01-10T07:43:36;-7.70;99.90
21672;DHT22;10997;52.242;8.168;2024-01-10T07:48:36;-7.70;99.90
21672;DHT22;10997;52.242;8.168;2024-01-10T07:53:38;-7.70;99.90
21672;DHT22;10997;52.242;8.168;2024-01-10T07:58:38;-7.60;99.90
21672;DHT22;10997;52.242;8.168;2024-01-10T08:03:39;-7.60;99.90
21672;DHT22;10997;52.242;8.168;2024-01-10T08:08:40;-7.50;99.90
21672;DHT22;10997;52.242;8.168;2024-01-10T08:13:41;-7.40;99.90
21672;DHT22;10997;52.242;8.168;2024-01-10T08:18:42;-7.30;99.90
21672;DHT22;10997;52.242;8.168;2024-01-10T08:23:42;-7.20;99.90
21672;DHT22;10997;52.242;8.168;2024-01-10T08:28:43;-7.10;99.90
21672;DHT22;10997;52.242;8.168;2024-01-10T08:33:44;-7.00;99.90
21672;DHT22;10997;52.242;8.168;2024-01-10T08:38:45;-6.90;99.90
21672;DHT22;10997;52.242;8.168;2024-01-10T08:43:49;-6.80;99.90
21672;DHT22;10997;52.242;8.168;2024-01-10T08:48:49;-6.70;99.90
21672;DHT22;10997;52.242;8.168;2024-01-10T08:53:50;-6.60;99.90
21672;DHT22;10997;52.242;8.168;2024-01-10T08:58:51;-6.50;99.90
21672;DHT22;10997;52.242;8.168;2024-01-10T09:03:51;-6.30;99.90
21672;DHT22;10997;52.242;8.168;2024-01-10T09:08:52;-6.20;99.90
21672;DHT22;10997;52.242;8.168;2024-01-10T09:13:53;-6.10;99.90
21672;DHT22;10997;52.242;8.168;2024-01-10T09:18:53;-6.00;99.90
21672;DHT22;10997;52.242;8.168;2024-01-10T09:23:57;-5.80;99.90
21672;DHT22;10997;52.242;8.168;2024-01-10T09:28:58;-5.70;99.90
21672;DHT22;10997;52.242;8.168;2024-01-10T09:33:58;-5.60;99.90
21672;DHT22;10997;52.242;8.168;2024-01-10T09:38:59;-5.60;99.90
21672;DHT22;10997;52.242;8.168;2024-01-10T09:43:59;-5.40;99.90
21672;DHT22;10997;52.242;8.168;2024-01-10T09:49:00;-5.30;99.90
21672;DHT22;10997;52.242;8.168;2024-01-10T09:54:03;-5.20;99.90
21672;DHT22;10997;52.242;8.168;2024-01-10T09:59:05;-5.20;99.90
21672;DHT22;10997;52.242;8.168;2024-01-10T10:04:12;-5.10;99.90
21672;DHT22;10997;52.242;8.168;2024-01-10T10:09:14;-5.10;99.90
21672;DHT22;10997;52.242;8.168;2024-01-10T10:14:17;-4.90;99.90
21672;DHT22;10997;52.242;8.168;2024-01-10T10:19:25;-4.90;99.90
21672;DHT22;10997;52.242;8.168;2024-01-10T10:24:25;-4.70;99.90
21672;DHT22;10997;52.242;8.168;2024-01-10T10:29:26;-4.60;99.90
21672;DHT22;10997;52.242;8.168;2024-01-10T10:34:31;-4.50;99.90
21672;DHT22;10997;52.242;8.168;2024-01-10T10:39:32;-4.40;99.90
21672;DHT22;10997;52.242;8.168;2024-01-10T10:44:36;-4.30;99.90
21672;DHT22;10997;52.242;8.168;2024-01-10T10:49:43;-4.20;99.90
21672;DHT22;10997;52.242;8.168;2024-01-10T10:54:46;-4.20;99.90
21672;DHT22;10997;52.242;8.168;2024-01-10T10:59:49;-4.10;99.90
21672;DHT22;10997;52.242;8.168;2024-01-10T11:04:54;-3.90;99.90
21672;DHT22;10997;52.242;8.168;2024-01-10T11:09:55;-3.80;99.90
21672;DHT22;10997;52.242;8.168;2024-01-10T11:15:34;-3.70;99.90
21672;DHT22;10997;52.242;8.168;2024-01-10T11:25:59;-3.40;99.90
21672;DHT22;10997;52.242;8.168;2024-01-10T11:31:00;-3.40;99.90
21672;DHT22;10997;52.242;8.168;2024-01-10T11:36:16;-3.20;99.90
21672;DHT22;10997;52.242;8.168;2024-01-10T11:41:44;-3.10;99.90
21672;DHT22;10997;52.242;8.168;2024-01-10T11:46:49;-2.90;99.90
21672;DHT22;10997;52.242;8.168;2024-01-10T11:51:58;-2.80;99.90
21672;DHT22;10997;52.242;8.168;2024-01-10T11:57:00;-2.60;99.90
21672;DHT22;10997;52.242;8.168;2024-01-10T12:02:02;-2.50;99.90
21672;DHT22;10997;52.242;8.168;2024-01-10T12:07:05;-2.40;99.90
21672;DHT22;10997;52.242;8.168;2024-01-10T12:12:08;-2.30;99.90
21672;DHT22;10997;52.242;8.168;2024-01-10T12:17:09;-2.10;99.90
21672;DHT22;10997;52.242;8.168;2024-01-10T12:22:10;-2.10;99.90
21672;DHT22;10997;52.242;8.168;2024-01-10T12:27:10;-1.90;99.90
21672;DHT22;10997;52.242;8.168;2024-01-10T12:32:11;-1.90;99.90
21672;DHT22;10997;52.242;8.168;2024-01-10T12:37:12;-1.80;99.90
21672;DHT22;10997;52.242;8.168;2024-01-10T12:42:12;-1.60;99.90
21672;DHT22;10997;52.242;8.168;2024-01-10T12:47:20;-1.40;99.90
21672;DHT22;10997;52.242;8.168;2024-01-10T12:52:21;-1.40;99.90
21672;DHT22;10997;52.242;8.168;2024-01-10T12:57:22;-1.40;99.90
21672;DHT22;10997;52.242;8.168;2024-01-10T13:02:24;-1.40;99.90
21672;DHT22;10997;52.242;8.168;2024-01-10T13:07:24;-1.40;99.90
21672;DHT22;10997;52.242;8.168;2024-01-10T13:12:26;-1.30;99.90
21672;DHT22;10997;52.242;8.168;2024-01-10T13:17:27;-1.30;99.90
21672;DHT22;10997;52.242;8.168;2024-01-10T13:22:27;-1.30;99.90
21672;DHT22;10997;52.242;8.168;2024-01-10T13:27:28;-1.20;99.90
21672;DHT22;10997;52.242;8.168;2024-01-10T13:32:28;-1.10;99.90
21672;DHT22;10997;52.242;8.168;2024-01-10T13:37:29;-1.10;99.90
21672;DHT22;10997;52.242;8.168;2024-01-10T13:42:31;-1.10;99.90
21672;DHT22;10997;52.242;8.168;2024-01-10T13:47:33;-1.10;99.90
21672;DHT22;10997;52.242;8.168;2024-01-10T13:52:35;-1.10;99.90
21672;DHT22;10997;52.242;8.168;2024-01-10T13:57:36;-1.20;99.90
21672;DHT22;10997;52.242;8.168;2024-01-10T14:02:36;-1.20;99.90
21672;DHT22;10997;52.242;8.168;2024-01-10T14:07:37;-1.20;99.90
21672;DHT22;10997;52.242;8.168;2024-01-10T14:12:38;-1.20;99.90
21672;DHT22;10997;52.242;8.168;2024-01-10T14:17:40;-1.30;99.90
21672;DHT22;10997;52.242;8.168;2024-01-10T14:22:41;-1.30;99.90
21672;DHT22;10997;52.242;8.168;2024-01-10T14:27:41;-1.30;99.90
21672;DHT22;10997;52.242;8.168;2024-01-10T14:32:42;-1.40;99.90
21672;DHT22;10997;52.242;8.168;2024-01-10T14:37:43;-1.40;99.90
21672;DHT22;10997;52.242;8.168;2024-01-10T14:42:43;-1.50;99.90
21672;DHT22;10997;52.242;8.168;2024-01-10T14:47:46;-1.60;99.90
21672;DHT22;10997;52.242;8.168;2024-01-10T14:52:46;-1.70;99.90
21672;DHT22;10997;52.242;8.168;2024-01-10T14:57:47;-1.90;99.90
21672;DHT22;10997;52.242;8.168;2024-01-10T15:02:48;-2.00;99.90
21672;DHT22;10997;52.242;8.168;2024-01-10T15:07:48;-2.00;99.90
21672;DHT22;10997;52.242;8.168;2024-01-10T15:12:49;-2.20;99.90
21672;DHT22;10997;52.242;8.168;2024-01-10T15:17:49;-2.50;99.90
21672;DHT22;10997;52.242;8.168;2024-01-10T15:22:51;-2.60;99.90
21672;DHT22;10997;52.242;8.168;2024-01-10T15:27:52;-2.80;99.90
21672;DHT22;10997;52.242;8.168;2024-01-10T15:32:53;-3.00;99.90
21672;DHT22;10997;52.242;8.168;2024-01-10T15:37:53;-3.00;99.90
21672;DHT22;10997;52.242;8.168;2024-01-10T15:42:54;-3.20;99.90
21672;DHT22;10997;52.242;8.168;2024-01-10T15:47:55;-3.30;99.90
21672;DHT22;10997;52.242;8.168;2024-01-10T15:52:55;-3.40;99.90
21672;DHT22;10997;52.242;8.168;2024-01-10T15:57:56;-3.50;99.90
21672;DHT22;10997;52.242;8.168;2024-01-10T16:02:57;-3.60;99.90
21672;DHT22;10997;52.242;8.168;2024-01-10T16:07:58;-3.60;99.90
21672;DHT22;10997;52.242;8.168;2024-01-10T16:12:59;-3.70;99.90
21672;DHT22;10997;52.242;8.168;2024-01-10T16:17:59;-3.80;99.90
21672;DHT22;10997;52.242;8.168;2024-01-10T16:23:00;-3.80;99.90
21672;DHT22;10997;52.242;8.168;2024-01-10T16:28:01;-3.90;99.90
21672;DHT22;10997;52.242;8.168;2024-01-10T16:33:02;-4.00;99.90
21672;DHT22;10997;52.242;8.168;2024-01-10T16:38:03;-4.00;99.90
21672;DHT22;10997;52.242;8.168;2024-01-10T16:43:03;-4.10;99.90
21672;DHT22;10997;52.242;8.168;2024-01-10T16:48:04;-4.20;99.90
21672;DHT22;10997;52.242;8.168;2024-01-10T16:53:05;-4.20;99.90
21672;DHT22;10997;52.242;8.168;2024-01-10T16:58:06;-4.20;99.90
21672;DHT22;10997;52.242;8.168;2024-01-10T17:03:07;-4.20;99.90
21672;DHT22;10997;52.242;8.168;2024-01-10T17:08:07;-4.30;99.90
21672;DHT22;10997;52.242;8.168;2024-01-10T17:13:08;-4.30;99.90
21672;DHT22;10997;52.242;8.168;2024-01-10T17:18:08;-4.40;99.90
21672;DHT22;10997;52.242;8.168;2024-01-10T17:23:09;-4.50;99.90
21672;DHT22;10997;52.242;8.168;2024-01-10T17:28:10;-4.50;99.90
21672;DHT22;10997;52.242;8.168;2024-01-10T17:33:11;-4.50;99.90
21672;DHT22;10997;52.242;8.168;2024-01-10T17:38:12;-4.60;99.90
21672;DHT22;10997;52.242;8.168;2024-01-10T17:43:13;-4.60;99.90
21672;DHT22;10997;52.242;8.168;2024-01-10T17:48:13;-4.60;99.90
21672;DHT22;10997;52.242;8.168;2024-01-10T17:53:14;-4.70;99.90
21672;DHT22;10997;52.242;8.168;2024-01-10T17:58:15;-4.80;99.90
21672;DHT22;10997;52.242;8.168;2024-01-10T18:03:15;-4.80;99.90
21672;DHT22;10997;52.242;8.168;2024-01-10T18:08:16;-4.90;99.90
21672;DHT22;10997;52.242;8.168;2024-01-10T18:13:17;-4.80;99.90
21672;DHT22;10997;52.242;8.168;2024-01-10T18:18:19;-4.90;99.90
21672;DHT22;10997;52.242;8.168;2024-01-10T18:23:19;-5.00;99.90
21672;DHT22;10997;52.242;8.168;2024-01-10T18:28:20;-5.00;99.90
21672;DHT22;10997;52.242;8.168;2024-01-10T18:33:21;-5.10;99.90
21672;DHT22;10997;52.242;8.168;2024-01-10T18:38:21;-5.10;99.90
21672;DHT22;10997;52.242;8.168;2024-01-10T18:43:22;-5.20;99.90
21672;DHT22;10997;52.242;8.168;2024-01-10T18:48:22;-5.20;99.90
21672;DHT22;10997;52.242;8.168;2024-01-10T18:53:23;-5.20;99.90
21672;DHT22;10997;52.242;8.168;2024-01-10T18:58:25;-5.20;99.90
21672;DHT22;10997;52.242;8.168;2024-01-10T19:03:26;-5.30;99.90
21672;DHT22;10997;52.242;8.168;2024-01-10T19:08:27;-5.40;99.90
21672;DHT22;10997;52.242;8.168;2024-01-10T19:13:28;-5.50;99.90
21672;DHT22;10997;52.242;8.168;2024-01-10T19:18:34;-5.40;99.90
21672;DHT22;10997;52.242;8.168;2024-01-10T19:23:37;-5.50;99.90
21672;DHT22;10997;52.242;8.168;2024-01-10T19:28:37;-5.60;99.90
21672;DHT22;10997;52.242;8.168;2024-01-10T19:33:38;-5.60;99.90
21672;DHT22;10997;52.242;8.168;2024-01-10T19:38:39;-5.70;99.90
21672;DHT22;10997;52.242;8.168;2024-01-10T19:43:40;-5.80;99.90
21672;DHT22;10997;52.242;8.168;2024-01-10T19:48:41;-5.90;99.90
21672;DHT22;10997;52.242;8.168;2024-01-10T19:53:42;-5.90;99.90
21672;DHT22;10997;52.242;8.168;2024-01-10T19:58:48;-5.90;99.90
21672;DHT22;10997;52.242;8.168;2024-01-10T20:03:49;-6.00;99.90
21672;DHT22;10997;52.242;8.168;2024-01-10T20:08:50;-6.10;99.90
21672;DHT22;10997;52.242;8.168;2024-01-10T20:13:50;-6.20;99.90
21672;DHT22;10997;52.242;8.168;2024-01-10T20:18:51;-6.20;99.90
21672;DHT22;10997;52.242;8.168;2024-01-10T20:23:52;-6.20;99.90
21672;DHT22;10997;52.242;8.168;2024-01-10T20:28:52;-6.20;99.90
21672;DHT22;10997;52.242;8.168;2024-01-10T20:33:53;-6.30;99.90
21672;DHT22;10997;52.242;8.168;2024-01-10T20:38:53;-6.30;99.90
21672;DHT22;10997;52.242;8.168;2024-01-10T20:43:54;-6.30;99.90
21672;DHT22;10997;52.242;8.168;2024-01-10T20:48:55;-6.40;99.90
21672;DHT22;10997;52.242;8.168;2024-01-10T20:53:57;-6.40;99.90
21672;DHT22;10997;52.242;8.168;2024-01-10T20:58:57;-6.50;99.90
21672;DHT22;10997;52.242;8.168;2024-01-10T21:03:58;-6.50;99.90
21672;DHT22;10997;52.242;8.168;2024-01-10T21:08:59;-6.50;99.90
21672;DHT22;10997;52.242;8.168;2024-01-10T21:13:59;-6.70;99.90
21672;DHT22;10997;52.242;8.168;2024-01-10T21:19:00;-6.70;99.90
21672;DHT22;10997;52.242;8.168;2024-01-10T21:24:00;-6.70;99.90
21672;DHT22;10997;52.242;8.168;2024-01-10T21:29:01;-6.70;99.90
21672;DHT22;10997;52.242;8.168;2024-01-10T21:34:02;-6.60;99.90
21672;DHT22;10997;52.242;8.168;2024-01-10T21:39:03;-6.70;99.90
21672;DHT22;10997;52.242;8.168;2024-01-10T21:44:04;-6.70;99.90
21672;DHT22;10997;52.242;8.168;2024-01-10T21:49:05;-6.80;99.90
21672;DHT22;10997;52.242;8.168;2024-01-10T21:54:06;-6.80;99.90
21672;DHT22;10997;52.242;8.168;2024-01-10T21:59:06;-6.90;99.90
21672;DHT22;10997;52.242;8.168;2024-01-10T22:04:07;-6.90;99.90
21672;DHT22;10997;52.242;8.168;2024-01-10T22:09:08;-7.00;99.90
21672;DHT22;10997;52.242;8.168;2024-01-10T22:14:08;-7.10;99.90
21672;DHT22;10997;52.242;8.168;2024-01-10T22:19:09;-7.10;99.90
21672;DHT22;10997;52.242;8.168;2024-01-10T22:24:10;-7.10;99.90
21672;DHT22;10997;52.242;8.168;2024-01-10T22:29:10;-7.10;99.90
21672;DHT22;10997;52.242;8.168;2024-01-10T22:34:11;-7.10;99.90
21672;DHT22;10997;52.242;8.168;2024-01-10T22:39:11;-7.10;99.90
21672;DHT22;10997;52.242;8.168;2024-01-10T22:44:12;-7.20;99.90
21672;DHT22;10997;52.242;8.168;2024-01-10T22:49:16;-7.20;99.90
21672;DHT22;10997;52.242;8.168;2024-01-10T22:54:19;-7.30;99.90
21672;DHT22;10997;52.242;8.168;2024-01-10T22:59:19;-7.30;99.90
21672;DHT22;10997;52.242;8.168;2024-01-10T23:04:20;-7.30;99.90
21672;DHT22;10997;52.242;8.168;2024-01-10T23:09:21;-7.40;99.90
21672;DHT22;10997;52.242;8.168;2024-01-10T23:14:22;-7.40;99.90
21672;DHT22;10997;52.242;8.168;2024-01-10T23:19:22;-7.30;99.90
21672;DHT22;10997;52.242;8.168;2024-01-10T23:24:23;-7.30;99.90
21672;DHT22;10997;52.242;8.168;2024-01-10T23:29:23;-7.30;99.90
21672;DHT22;10997;52.242;8.168;2024-01-10T23:34:24;-7.30;99.90
21672;DHT22;10997;52.242;8.168;2024-01-10T23:39:25;-7.30;99.90
21672;DHT22;10997;52.242;8.168;2024-01-10T23:44:25;-7.40;99.90
21672;DHT22;10997;52.242;8.168;2024-01-10T23:49:26;-7.40;99.90
21672;DHT22;10997;52.242;8.168;2024-01-10T23:54:26;-7.50;99.90
21672;DHT22;10997;52.242;8.168;2024-01-10T23:59:27;-7.50;99.90
